createdAt,value
2018-07-14T00:01:06.496Z,3.90
2018-07-14T00:03:36.215Z,3.60
2018-07-14T00:06:05.980Z,3.80
2018-07-14T00:08:35.486Z,3.53
2018-07-14T00:11:05.075Z,3.07
2018-07-14T00:13:34.723Z,3.03
2018-07-14T00:16:04.787Z,2.70
2018-07-14T00:18:35.470Z,2.80
2018-07-14T00:21:05.377Z,2.53
2018-07-14T00:23:34.916Z,2.83
2018-07-14T00:26:04.594Z,2.50
2018-07-14T00:28:34.898Z,2.60
2018-07-14T00:31:04.504Z,3.17
2018-07-14T00:33:34.203Z,1.93
2018-07-14T00:36:04.238Z,2.83
2018-07-14T00:38:33.923Z,2.53
2018-07-14T00:41:03.810Z,2.23
2018-07-14T00:43:33.781Z,2.40
2018-07-14T00:46:03.896Z,2.57
2018-07-14T00:48:33.511Z,2.30
2018-07-14T00:51:03.325Z,2.63
2018-07-14T00:53:33.643Z,2.10
2018-07-14T00:56:03.524Z,2.07
2018-07-14T00:58:33.200Z,2.50
2018-07-14T01:01:02.676Z,2.10
2018-07-14T01:03:32.107Z,3.00
2018-07-14T01:06:01.825Z,2.10
2018-07-14T01:08:31.495Z,2.10
2018-07-14T01:11:01.108Z,2.30
2018-07-14T01:13:31.098Z,2.40
2018-07-14T01:16:00.914Z,2.57
2018-07-14T01:18:30.550Z,2.30
2018-07-14T01:21:00.344Z,2.00
2018-07-14T01:23:29.818Z,3.30
2018-07-14T01:25:59.472Z,2.10
2018-07-14T01:28:30.633Z,2.30
2018-07-14T01:31:00.536Z,2.63
2018-07-14T01:33:30.298Z,2.40
2018-07-14T01:36:00.138Z,1.80
2018-07-14T01:38:30.079Z,2.83
2018-07-14T01:40:59.904Z,2.10
2018-07-14T01:43:29.510Z,2.03
2018-07-14T01:45:59.109Z,2.03
2018-07-14T01:48:28.683Z,2.83
2018-07-14T01:50:59.525Z,2.27
2018-07-14T01:53:31.995Z,2.20
2018-07-14T01:56:02.700Z,2.43
2018-07-14T01:58:32.689Z,2.80
2018-07-14T02:01:02.423Z,2.47
2018-07-14T02:03:32.577Z,1.93
2018-07-14T02:06:02.512Z,2.30
2018-07-14T02:08:32.498Z,2.27
2018-07-14T02:11:03.081Z,2.17
2018-07-14T02:13:32.976Z,1.80
2018-07-14T02:16:02.660Z,2.57
2018-07-14T02:18:32.676Z,2.70
2018-07-14T02:21:02.434Z,2.33
2018-07-14T02:23:32.290Z,2.10
2018-07-14T02:26:02.161Z,1.90
2018-07-14T02:28:31.742Z,1.90
2018-07-14T02:31:01.637Z,1.90
2018-07-14T02:33:31.701Z,2.20
2018-07-14T02:36:01.381Z,2.40
2018-07-14T02:38:31.407Z,2.47
2018-07-14T02:41:01.784Z,2.13
2018-07-14T02:43:31.824Z,2.10
2018-07-14T02:46:01.644Z,2.00
2018-07-14T02:48:32.264Z,2.87
2018-07-14T02:51:02.035Z,2.67
2018-07-14T02:53:32.002Z,2.43
2018-07-14T02:56:02.120Z,2.07
2018-07-14T02:58:32.358Z,2.27
2018-07-14T03:01:02.809Z,2.10
2018-07-14T03:03:32.566Z,2.60
2018-07-14T03:06:02.510Z,2.33
2018-07-14T03:08:33.548Z,2.40
2018-07-14T03:11:03.883Z,1.70
2018-07-14T03:13:33.929Z,1.83
2018-07-14T03:16:05.137Z,2.47
2018-07-14T03:18:35.277Z,2.53
2018-07-14T03:21:04.893Z,2.10
2018-07-14T03:23:34.845Z,1.70
2018-07-14T03:26:04.542Z,2.37
2018-07-14T03:28:34.204Z,2.10
2018-07-14T03:31:04.337Z,2.17
2018-07-14T03:33:34.553Z,2.20
2018-07-14T03:36:04.463Z,2.23
2018-07-14T03:38:34.291Z,2.53
2018-07-14T03:41:04.314Z,2.10
2018-07-14T03:43:34.620Z,2.40
2018-07-14T03:46:04.525Z,2.07
2018-07-14T03:48:34.410Z,2.83
2018-07-14T03:51:03.945Z,1.83
2018-07-14T03:53:33.614Z,1.83
2018-07-14T03:56:03.384Z,1.57
2018-07-14T03:58:33.128Z,1.90
2018-07-14T04:01:03.599Z,2.33
2018-07-14T04:03:33.532Z,2.00
2018-07-14T04:06:04.062Z,1.70
2018-07-14T04:08:34.045Z,2.07
2018-07-14T04:11:03.854Z,2.03
2018-07-14T04:13:36.014Z,2.20
2018-07-14T04:16:05.943Z,2.20
2018-07-14T04:18:37.238Z,2.03
2018-07-14T04:21:07.357Z,1.70
2018-07-14T04:23:37.450Z,2.13
2018-07-14T04:26:07.521Z,2.00
2018-07-14T04:28:37.483Z,1.70
2018-07-14T04:31:07.603Z,2.27
2018-07-14T04:33:37.879Z,1.97
2018-07-14T04:36:07.562Z,1.70
2018-07-14T04:38:37.978Z,2.57
2018-07-14T04:41:08.182Z,2.10
2018-07-14T04:43:38.233Z,2.47
2018-07-14T04:46:09.099Z,2.20
2018-07-14T04:48:39.472Z,2.10
2018-07-14T04:51:09.235Z,2.10
2018-07-14T04:53:39.262Z,2.00
2018-07-14T04:56:09.137Z,1.80
2018-07-14T04:58:38.819Z,2.07
2018-07-14T05:01:08.835Z,2.30
2018-07-14T05:03:38.290Z,2.17
2018-07-14T05:06:07.790Z,2.20
2018-07-14T05:08:37.469Z,2.10
2018-07-14T05:11:07.478Z,1.77
2018-07-14T05:13:40.264Z,1.93
2018-07-14T05:16:10.081Z,2.20
2018-07-14T05:18:39.643Z,1.80
2018-07-14T05:21:09.231Z,3.23
2018-07-14T05:23:38.981Z,1.80
2018-07-14T05:26:08.522Z,1.50
2018-07-14T05:28:39.427Z,1.23
2018-07-14T05:31:09.103Z,1.40
2018-07-14T05:33:38.698Z,1.63
2018-07-14T05:36:08.218Z,2.00
2018-07-14T05:38:37.751Z,1.43
2018-07-14T05:41:07.369Z,1.10
2018-07-14T05:43:36.998Z,1.53
2018-07-14T05:46:07.243Z,1.10
2018-07-14T05:48:36.674Z,1.30
2018-07-14T05:51:06.298Z,1.20
2018-07-14T05:53:35.931Z,1.10
2018-07-14T05:56:05.396Z,1.03
2018-07-14T05:58:34.956Z,0.90
2018-07-14T06:01:04.765Z,1.23
2018-07-14T06:03:34.625Z,1.10
2018-07-14T06:06:04.544Z,0.93
2018-07-14T06:08:35.849Z,1.00
2018-07-14T06:11:05.944Z,1.00
2018-07-14T06:13:35.807Z,1.10
2018-07-14T06:16:05.686Z,1.03
2018-07-14T06:18:35.598Z,0.93
2018-07-14T06:21:05.406Z,1.20
2018-07-14T06:23:35.208Z,0.87
2018-07-14T06:26:05.283Z,1.20
2018-07-14T06:28:35.345Z,0.97
2018-07-14T06:31:05.453Z,1.17
2018-07-14T06:33:35.349Z,0.97
2018-07-14T06:36:05.500Z,1.10
2018-07-14T06:38:36.052Z,1.10
2018-07-14T06:41:08.119Z,1.00
2018-07-14T06:43:37.674Z,1.07
2018-07-14T06:46:07.661Z,0.90
2018-07-14T06:48:37.269Z,0.90
2018-07-14T06:51:07.091Z,0.93
2018-07-14T06:53:36.771Z,1.03
2018-07-14T06:56:06.372Z,1.60
2018-07-14T06:58:36.739Z,1.60
2018-07-14T07:01:06.336Z,0.90
2018-07-14T07:03:36.220Z,0.90
2018-07-14T07:06:06.282Z,1.00
2018-07-14T07:08:35.950Z,1.63
2018-07-14T07:11:05.591Z,1.00
2018-07-14T07:13:35.532Z,0.70
2018-07-14T07:16:05.541Z,0.90
2018-07-14T07:18:35.302Z,1.00
2018-07-14T07:21:05.467Z,0.90
2018-07-14T07:23:35.670Z,0.83
2018-07-14T07:26:05.699Z,0.77
2018-07-14T07:28:35.584Z,0.70
2018-07-14T07:31:05.433Z,0.90
2018-07-14T07:33:35.125Z,0.80
2018-07-14T07:36:04.856Z,0.90
2018-07-14T07:38:34.591Z,1.07
2018-07-14T07:41:04.494Z,0.77
2018-07-14T07:43:34.522Z,0.90
2018-07-14T07:46:04.284Z,1.00
2018-07-14T07:48:35.459Z,0.90
2018-07-14T07:51:04.966Z,0.90
2018-07-14T07:53:34.582Z,1.00
2018-07-14T07:56:04.250Z,0.80
2018-07-14T07:58:33.860Z,0.60
2018-07-14T08:01:07.271Z,0.80
2018-07-14T08:03:37.273Z,0.87
2018-07-14T08:06:06.811Z,0.87
2018-07-14T08:08:36.850Z,1.10
2018-07-14T08:11:07.297Z,0.80
2018-07-14T08:13:37.049Z,1.20
2018-07-14T08:16:06.972Z,0.70
2018-07-14T08:18:36.954Z,0.70
2018-07-14T08:21:06.929Z,0.70
2018-07-14T08:23:37.952Z,0.93
2018-07-14T08:26:08.131Z,0.80
2018-07-14T08:28:37.754Z,0.80
2018-07-14T08:31:07.700Z,0.80
2018-07-14T08:33:38.784Z,0.70
2018-07-14T08:36:10.496Z,1.00
2018-07-14T08:38:40.405Z,0.70
2018-07-14T08:41:12.550Z,0.60
2018-07-14T08:43:43.103Z,1.40
2018-07-14T08:46:12.496Z,1.10
2018-07-14T08:48:42.640Z,0.80
2018-07-14T08:51:12.033Z,0.87
2018-07-14T08:53:41.319Z,0.80
2018-07-14T08:56:10.955Z,0.90
2018-07-14T08:58:40.289Z,0.83
2018-07-14T09:01:09.480Z,0.87
2018-07-14T09:03:39.273Z,0.60
2018-07-14T09:06:08.962Z,0.83
2018-07-14T09:08:39.244Z,0.80
2018-07-14T09:11:09.574Z,0.87
2018-07-14T09:13:39.172Z,0.83
2018-07-14T09:16:08.830Z,0.70
2018-07-14T09:18:38.550Z,0.80
2018-07-14T09:21:08.451Z,1.30
2018-07-14T09:23:38.048Z,0.90
2018-07-14T09:26:07.704Z,1.10
2018-07-14T09:28:37.552Z,0.70
2018-07-14T09:31:08.336Z,0.90
2018-07-14T09:33:39.309Z,0.90
2018-07-14T09:36:08.880Z,0.80
2018-07-14T09:38:40.304Z,0.97
2018-07-14T09:41:10.049Z,1.00
2018-07-14T09:43:39.990Z,0.93
2018-07-14T09:46:09.559Z,0.90
2018-07-14T09:48:39.531Z,0.70
2018-07-14T09:51:09.427Z,0.73
2018-07-14T09:53:39.128Z,1.13
2018-07-14T09:56:08.659Z,0.97
2018-07-14T09:58:38.279Z,0.90
2018-07-14T10:01:10.816Z,0.90
2018-07-14T10:03:40.489Z,1.03
2018-07-14T10:06:10.486Z,1.10
2018-07-14T10:08:40.060Z,0.77
2018-07-14T10:11:09.659Z,0.80
2018-07-14T10:13:41.163Z,0.97
2018-07-14T10:16:11.416Z,0.60
2018-07-14T10:18:41.367Z,0.80
2018-07-14T10:21:12.002Z,0.60
2018-07-14T10:23:43.154Z,0.60
2018-07-14T10:26:13.013Z,0.70
2018-07-14T10:28:42.466Z,0.90
2018-07-14T10:31:12.345Z,0.60
2018-07-14T10:33:43.227Z,0.80
2018-07-14T10:36:13.064Z,0.90
2018-07-14T10:38:42.861Z,0.90
2018-07-14T10:41:12.990Z,0.77
2018-07-14T10:43:42.633Z,0.70
2018-07-14T10:46:12.303Z,1.13
2018-07-14T10:48:42.354Z,0.80
2018-07-14T10:51:13.185Z,0.90
2018-07-14T10:53:42.782Z,1.40
2018-07-14T10:56:12.307Z,0.70
2018-07-14T10:58:42.381Z,0.80
2018-07-14T11:01:21.120Z,0.97
2018-07-14T11:03:53.162Z,0.93
2018-07-14T11:06:22.465Z,0.67
2018-07-14T11:08:51.803Z,0.80
2018-07-14T11:11:21.222Z,0.80
2018-07-14T11:13:52.651Z,0.70
2018-07-14T11:16:22.354Z,0.80
2018-07-14T11:18:51.688Z,0.80
2018-07-14T11:21:21.108Z,0.90
2018-07-14T11:23:51.914Z,0.70
2018-07-14T11:26:22.050Z,0.90
2018-07-14T11:28:51.900Z,0.90
2018-07-14T11:31:21.204Z,0.90
2018-07-14T11:33:50.533Z,1.03
2018-07-14T11:36:19.935Z,0.93
2018-07-14T11:38:49.645Z,0.90
2018-07-14T11:41:19.054Z,0.80
2018-07-14T11:43:48.486Z,1.17
2018-07-14T11:46:17.909Z,0.90
2018-07-14T11:48:47.195Z,1.00
2018-07-14T11:51:16.590Z,0.90
2018-07-14T11:53:45.976Z,0.90
2018-07-14T11:56:15.627Z,1.33
2018-07-14T11:58:45.376Z,1.10
2018-07-14T12:01:14.830Z,1.27
2018-07-14T12:03:44.475Z,0.80
2018-07-14T12:06:14.059Z,0.70
2018-07-14T12:08:43.993Z,1.00
2018-07-14T12:11:13.533Z,0.90
2018-07-14T12:13:43.172Z,1.03
2018-07-14T12:16:14.546Z,0.83
2018-07-14T12:18:44.100Z,0.80
2018-07-14T12:21:14.353Z,0.80
2018-07-14T12:23:44.149Z,1.00
2018-07-14T12:26:13.896Z,0.77
2018-07-14T12:28:43.741Z,0.87
2018-07-14T12:31:13.554Z,1.10
2018-07-14T12:33:44.000Z,0.80
2018-07-14T12:36:15.028Z,1.57
2018-07-14T12:38:44.855Z,0.83
2018-07-14T12:41:15.162Z,0.90
2018-07-14T12:43:45.027Z,0.87
2018-07-14T12:46:16.298Z,0.90
2018-07-14T12:48:46.575Z,1.00
2018-07-14T12:51:16.153Z,0.80
2018-07-14T12:53:47.013Z,1.13
2018-07-14T12:56:16.461Z,0.90
2018-07-14T12:58:45.911Z,1.00
2018-07-14T13:01:15.299Z,1.10
2018-07-14T13:03:44.913Z,1.30
2018-07-14T13:06:15.459Z,0.70
2018-07-14T13:08:45.303Z,0.93
2018-07-14T13:11:18.375Z,1.00
2018-07-14T13:13:47.902Z,0.70
2018-07-14T13:16:30.668Z,0.97
2018-07-14T13:19:02.653Z,1.00
2018-07-14T13:21:33.370Z,1.00
2018-07-14T13:24:06.709Z,1.00
2018-07-14T13:26:37.486Z,1.23
2018-07-14T13:29:08.532Z,0.90
2018-07-14T13:31:38.539Z,1.13
2018-07-14T13:34:08.275Z,1.17
2018-07-14T13:36:38.473Z,0.80
2018-07-14T13:39:09.365Z,1.03
2018-07-14T13:41:39.435Z,0.90
2018-07-14T13:44:09.719Z,1.03
2018-07-14T13:46:41.156Z,0.70
2018-07-14T13:49:10.941Z,1.00
2018-07-14T13:51:40.880Z,0.87
2018-07-14T13:54:11.106Z,0.87
2018-07-14T13:56:40.791Z,0.80
2018-07-14T13:59:10.662Z,0.77
2018-07-14T14:01:41.241Z,0.70
2018-07-14T14:04:11.240Z,0.90
2018-07-14T14:06:41.397Z,0.90
2018-07-14T14:09:12.165Z,1.03
2018-07-14T14:11:42.305Z,0.90
2018-07-14T14:14:13.080Z,1.20
2018-07-14T14:16:42.966Z,0.90
2018-07-14T14:19:12.885Z,0.70
2018-07-14T14:21:42.627Z,1.07
2018-07-14T14:24:12.082Z,0.90
2018-07-14T14:26:42.040Z,0.90
2018-07-14T14:29:12.257Z,0.93
2018-07-14T14:31:42.510Z,0.90
2018-07-14T14:34:12.028Z,0.73
2018-07-14T14:36:42.100Z,0.90
2018-07-14T14:39:11.537Z,1.07
2018-07-14T14:41:41.178Z,0.90
2018-07-14T14:44:11.043Z,0.93
2018-07-14T14:46:40.858Z,0.80
2018-07-14T14:49:12.357Z,0.90
2018-07-14T14:51:41.678Z,0.80
2018-07-14T14:54:11.396Z,1.10
2018-07-14T14:56:41.750Z,1.10
2018-07-14T14:59:11.350Z,0.80
2018-07-14T15:01:41.426Z,1.00
2018-07-14T15:04:11.284Z,1.10
2018-07-14T15:06:41.689Z,1.33
2018-07-14T15:09:10.960Z,1.03
2018-07-14T15:11:40.966Z,1.03
2018-07-14T15:14:10.545Z,1.00
2018-07-14T15:16:40.314Z,0.93
2018-07-14T15:19:10.918Z,1.10
2018-07-14T15:21:40.585Z,1.00
2018-07-14T15:24:10.298Z,0.83
2018-07-14T15:26:40.557Z,1.10
2018-07-14T15:29:10.346Z,1.00
2018-07-14T15:31:40.349Z,1.00
2018-07-14T15:34:10.328Z,0.77
2018-07-14T15:36:40.398Z,1.07
2018-07-14T15:39:10.869Z,1.27
2018-07-14T15:41:40.704Z,1.07
2018-07-14T15:44:10.658Z,1.27
2018-07-14T15:46:40.375Z,0.80
2018-07-14T15:49:10.206Z,1.53
2018-07-14T15:51:40.018Z,1.60
2018-07-14T15:54:13.598Z,1.27
2018-07-14T15:56:43.233Z,1.10
2018-07-14T15:59:12.945Z,1.30
2018-07-14T16:01:43.003Z,1.17
2018-07-14T16:04:12.826Z,1.43
2018-07-14T16:06:42.739Z,1.47
2018-07-14T16:09:14.381Z,1.00
2018-07-14T16:11:43.948Z,1.20
2018-07-14T16:14:13.593Z,1.33
2018-07-14T16:16:43.649Z,1.60
2018-07-14T16:19:14.998Z,1.10
2018-07-14T16:21:44.573Z,1.20
2018-07-14T16:24:14.445Z,1.37
2018-07-14T16:26:44.146Z,1.53
2018-07-14T16:29:13.560Z,1.00
2018-07-14T16:31:43.011Z,1.33
2018-07-14T16:34:12.405Z,0.90
2018-07-14T17:58:43.468Z,1.90
2018-07-14T18:01:13.403Z,1.50
2018-07-14T18:03:43.114Z,1.60
2018-07-14T18:06:13.979Z,1.33
2018-07-14T18:08:43.629Z,1.93
2018-07-14T18:11:12.888Z,1.53
2018-07-14T18:13:42.700Z,2.07
2018-07-14T18:16:12.959Z,2.47
2018-07-14T18:18:43.240Z,1.83
2018-07-14T18:21:12.676Z,2.50
2018-07-14T18:23:41.931Z,1.80
2018-07-14T18:26:11.470Z,1.70
2018-07-14T18:28:41.106Z,1.83
2018-07-14T18:31:10.610Z,1.53
2018-07-14T18:33:40.399Z,1.57
2018-07-14T18:36:09.797Z,1.53
2018-07-14T18:38:39.436Z,1.30
2018-07-14T18:41:09.078Z,1.53
2018-07-14T18:43:39.240Z,1.80
2018-07-14T18:46:09.031Z,2.03
2018-07-14T18:48:42.851Z,2.20
2018-07-14T18:51:12.219Z,1.50
2018-07-14T18:53:41.623Z,1.43
2018-07-14T18:56:11.816Z,1.70
2018-07-14T18:58:41.913Z,1.80
2018-07-14T19:01:11.361Z,2.60
2018-07-14T19:03:40.893Z,1.80
2018-07-14T19:06:10.544Z,1.93
2018-07-14T19:08:41.069Z,1.93
2018-07-14T19:11:10.551Z,2.10
2018-07-14T19:13:40.084Z,3.10
2018-07-14T19:16:09.862Z,2.50
2018-07-14T19:18:40.421Z,3.20
2018-07-14T19:21:09.827Z,2.50
2018-07-14T19:23:39.306Z,2.30
2018-07-14T19:26:10.188Z,2.10
2018-07-14T19:28:41.008Z,2.00
2018-07-14T19:31:11.203Z,3.20
2018-07-14T19:33:40.871Z,4.60
2018-07-14T19:36:10.508Z,2.20
2018-07-14T19:38:42.439Z,4.57
2018-07-14T19:41:11.715Z,7.97
2018-07-14T19:43:42.525Z,4.40
2018-07-14T19:46:12.479Z,3.80
2018-07-14T19:48:42.182Z,3.20
2018-07-14T19:51:12.482Z,2.93
2018-07-14T19:53:42.479Z,3.13
2018-07-14T19:56:12.435Z,3.50
2018-07-14T19:58:42.227Z,2.93
2018-07-14T20:01:11.579Z,3.90
2018-07-14T20:03:40.962Z,4.50
2018-07-14T20:06:10.919Z,3.00
2018-07-14T20:08:40.894Z,2.67
2018-07-14T20:11:10.702Z,4.00
2018-07-14T20:13:40.497Z,3.37
2018-07-14T20:16:11.036Z,5.13
2018-07-14T20:18:40.950Z,6.47
2018-07-14T20:21:10.760Z,3.50
2018-07-14T20:23:40.372Z,5.30
2018-07-14T20:26:10.280Z,4.47
2018-07-14T20:28:39.874Z,4.17
2018-07-14T20:31:09.722Z,3.37
2018-07-14T20:33:39.432Z,2.93
2018-07-14T20:36:09.121Z,3.60
2018-07-14T20:38:39.513Z,3.70
2018-07-14T20:41:09.315Z,2.93
2018-07-14T20:43:38.939Z,3.40
2018-07-14T20:46:08.693Z,3.43
2018-07-14T20:48:38.471Z,3.57
2018-07-14T20:51:08.470Z,4.93
2018-07-14T20:53:38.530Z,3.87
2018-07-14T20:56:08.534Z,3.67
2018-07-14T20:58:38.688Z,4.00
2018-07-14T21:01:09.832Z,4.27
2018-07-14T21:03:39.428Z,3.97
2018-07-14T21:06:09.730Z,3.17
2018-07-14T21:08:39.850Z,3.70
2018-07-14T21:11:10.153Z,2.97
2018-07-14T21:13:40.604Z,3.53
2018-07-14T21:16:10.515Z,3.43
2018-07-14T21:18:40.517Z,5.00
2018-07-14T21:21:11.447Z,4.80
2018-07-14T21:23:41.762Z,3.90
2018-07-14T21:26:12.096Z,4.93
2018-07-14T21:28:42.495Z,4.87
2018-07-14T21:31:13.022Z,4.47
2018-07-14T21:33:42.849Z,3.90
2018-07-14T21:36:13.521Z,3.90
2018-07-14T21:38:43.717Z,5.40
2018-07-14T21:41:13.910Z,5.60
2018-07-14T21:43:43.791Z,5.40
2018-07-14T21:46:13.399Z,5.50
2018-07-14T21:48:43.157Z,4.97
2018-07-14T21:51:13.071Z,4.60
2018-07-14T21:53:42.573Z,6.13
2018-07-14T21:56:12.937Z,4.73
2018-07-14T21:58:42.541Z,7.10
2018-07-14T22:01:17.309Z,5.70
2018-07-14T22:03:46.693Z,3.80
2018-07-14T22:06:16.075Z,3.80
2018-07-14T22:08:45.637Z,4.97
2018-07-14T22:11:16.578Z,4.10
2018-07-14T22:13:48.099Z,3.70
2018-07-14T22:16:17.518Z,4.00
2018-07-14T22:18:46.983Z,4.23
2018-07-14T22:21:16.347Z,4.50
2018-07-14T22:23:45.697Z,4.70
2018-07-14T22:26:15.411Z,4.70
2018-07-14T22:28:44.909Z,3.73
2018-07-14T22:31:17.188Z,4.20
2018-07-14T22:33:46.711Z,5.37
2018-07-14T22:36:16.292Z,5.27
2018-07-14T22:38:45.855Z,4.87
2018-07-14T22:41:15.571Z,4.50
2018-07-14T22:43:45.156Z,4.97
2018-07-14T22:46:14.871Z,4.50
2018-07-14T22:48:46.255Z,4.07
2018-07-14T22:51:17.128Z,4.27
2018-07-14T22:53:46.751Z,4.17
2018-07-14T22:56:16.423Z,4.37
2018-07-14T22:58:46.421Z,4.70
2018-07-14T23:01:16.165Z,4.43
2018-07-14T23:03:46.284Z,4.40
2018-07-14T23:06:15.917Z,4.87
2018-07-14T23:08:45.590Z,4.93
2018-07-14T23:11:15.634Z,6.40
2018-07-14T23:13:45.745Z,5.67
2018-07-14T23:16:15.694Z,5.87
2018-07-14T23:18:45.289Z,5.23
2018-07-14T23:21:15.116Z,5.10
2018-07-14T23:23:44.763Z,5.23
2018-07-14T23:26:14.227Z,5.10
2018-07-14T23:28:43.774Z,4.60
2018-07-14T23:31:13.446Z,6.00
2018-07-14T23:33:42.988Z,5.00
2018-07-14T23:36:12.475Z,4.40
2018-07-14T23:38:42.141Z,5.27
2018-07-14T23:41:11.601Z,4.93
2018-07-14T23:43:41.108Z,4.67
2018-07-14T23:46:12.465Z,4.60
2018-07-14T23:48:41.745Z,5.60
2018-07-14T23:51:15.172Z,5.83
2018-07-14T23:53:44.514Z,6.30
2018-07-14T23:56:13.952Z,4.90
2018-07-14T23:58:43.225Z,6.57
